createdAt,value
2023-05-13T00:00:09.956Z,9.681188
2023-05-13T00:01:09.951Z,9.681015
2023-05-13T00:02:09.944Z,9.681170
2023-05-13T00:03:10.078Z,9.681029
2023-05-13T00:04:09.958Z,9.681088
2023-05-13T00:05:09.926Z,9.681016
2023-05-13T00:06:09.975Z,9.681066
2023-05-13T00:07:09.935Z,9.681085
2023-05-13T00:08:09.882Z,9.680994
2023-05-13T00:09:09.878Z,9.681024
2023-05-13T00:10:09.865Z,9.681067
2023-05-13T00:11:09.928Z,9.681112
2023-05-13T00:12:09.872Z,9.681156
2023-05-13T00:13:09.884Z,9.681107
2023-05-13T00:14:09.839Z,9.681108
2023-05-13T00:15:09.858Z,9.681096
2023-05-13T00:16:09.863Z,9.681142
2023-05-13T00:17:09.839Z,9.681087
2023-05-13T00:18:09.810Z,9.680872
2023-05-13T00:19:09.875Z,9.681140
2023-05-13T00:20:09.836Z,9.681040
2023-05-13T00:21:09.830Z,9.681124
2023-05-13T00:22:09.781Z,9.681167
2023-05-13T00:23:09.827Z,9.681108
2023-05-13T00:24:09.765Z,9.681043
2023-05-13T00:25:09.797Z,9.680984
2023-05-13T00:26:09.791Z,9.681198
2023-05-13T00:27:09.779Z,9.681029
2023-05-13T00:28:09.736Z,9.681293
2023-05-13T00:29:09.783Z,9.681388
2023-05-13T00:30:09.744Z,9.681167
2023-05-13T00:31:09.887Z,9.681464
2023-05-13T00:32:09.751Z,9.681591
2023-05-13T00:33:09.734Z,9.681280
2023-05-13T00:34:09.741Z,9.681225
2023-05-13T00:35:09.722Z,9.681285
2023-05-13T00:36:09.687Z,9.681108
2023-05-13T00:37:09.717Z,9.681074
2023-05-13T00:38:09.677Z,9.681026
2023-05-13T00:39:09.871Z,9.681150
2023-05-13T00:40:09.712Z,9.681097
2023-05-13T00:41:09.708Z,9.681014
2023-05-13T00:42:09.664Z,9.681063
2023-05-13T00:43:09.735Z,9.681108
2023-05-13T00:44:09.672Z,9.681126
2023-05-13T00:45:09.710Z,9.681114
2023-05-13T00:46:09.673Z,9.681067
2023-05-13T00:47:09.670Z,9.681046
2023-05-13T00:48:09.690Z,9.681061
2023-05-13T00:49:09.669Z,9.681077
2023-05-13T00:50:09.666Z,9.681052
2023-05-13T00:51:09.670Z,9.681011
2023-05-13T00:52:09.581Z,9.680972
2023-05-13T00:53:09.605Z,9.681038
2023-05-13T00:54:09.580Z,9.681074
2023-05-13T00:55:09.605Z,9.680982
2023-05-13T00:56:09.578Z,9.680992
2023-05-13T00:57:09.676Z,9.681007
2023-05-13T00:58:09.555Z,9.680955
2023-05-13T00:59:09.555Z,9.681025
2023-05-13T01:00:09.536Z,9.681057
2023-05-13T01:01:16.634Z,9.681067
2023-05-13T01:02:09.553Z,9.681091
2023-05-13T01:03:09.719Z,9.681082
2023-05-13T01:04:09.520Z,9.681027
2023-05-13T01:05:09.526Z,9.681161
2023-05-13T01:06:09.512Z,9.681075
2023-05-13T01:07:09.533Z,9.681099
2023-05-13T01:08:09.490Z,9.681051
2023-05-13T01:09:09.506Z,9.681005
2023-05-13T01:10:09.497Z,9.681068
2023-05-13T01:11:09.498Z,9.681064
2023-05-13T01:12:09.460Z,9.681146
2023-05-13T01:13:09.501Z,9.681015
2023-05-13T01:14:09.477Z,9.681042
2023-05-13T01:15:09.455Z,9.681108
2023-05-13T01:16:09.470Z,9.681102
2023-05-13T01:17:09.438Z,9.680888
2023-05-13T01:18:09.519Z,9.681008
2023-05-13T01:19:09.454Z,9.681000
2023-05-13T01:20:09.434Z,9.681108
2023-05-13T01:21:09.410Z,9.681057
2023-05-13T01:22:09.389Z,9.680963
2023-05-13T01:23:09.399Z,9.680959
2023-05-13T01:24:09.374Z,9.680954
2023-05-13T01:25:09.376Z,9.681082
2023-05-13T01:26:09.384Z,9.680982
2023-05-13T01:27:09.368Z,9.681095
2023-05-13T01:28:09.371Z,9.681112
2023-05-13T01:29:09.359Z,9.680994
2023-05-13T01:30:09.347Z,9.681010
2023-05-13T01:31:09.443Z,9.681003
2023-05-13T01:32:09.309Z,9.681052
2023-05-13T01:33:09.385Z,9.680969
2023-05-13T01:34:09.297Z,9.681060
2023-05-13T01:35:09.321Z,9.681250
2023-05-13T01:36:09.286Z,9.681246
2023-05-13T01:37:09.305Z,9.681306
2023-05-13T01:38:09.273Z,9.681383
2023-05-13T01:39:09.296Z,9.681269
2023-05-13T01:40:17.510Z,9.681294
2023-05-13T01:41:10.256Z,9.681200
2023-05-13T01:42:09.279Z,9.681066
2023-05-13T01:43:09.273Z,9.681118
2023-05-13T01:44:09.260Z,9.681154
2023-05-13T01:45:09.265Z,9.681132
2023-05-13T01:46:09.304Z,9.681170
2023-05-13T01:47:09.232Z,9.681149
2023-05-13T01:48:09.246Z,9.681188
2023-05-13T01:49:09.223Z,9.681186
2023-05-13T01:50:09.213Z,9.681230
2023-05-13T01:51:09.211Z,9.681199
2023-05-13T01:52:09.186Z,9.681150
2023-05-13T01:53:09.216Z,9.681032
2023-05-13T01:54:09.154Z,9.681052
2023-05-13T01:55:09.180Z,9.680901
2023-05-13T01:56:09.214Z,9.680953
2023-05-13T01:57:09.154Z,9.680794
2023-05-13T01:58:09.147Z,9.680909
2023-05-13T01:59:09.135Z,9.680974
2023-05-13T02:00:09.110Z,9.680940
2023-05-13T02:01:09.157Z,9.680929
2023-05-13T02:02:09.176Z,9.681026
2023-05-13T02:03:09.191Z,9.681069
2023-05-13T02:04:09.097Z,9.681122
2023-05-13T02:05:09.090Z,9.681101
2023-05-13T02:06:09.088Z,9.681252
2023-05-13T02:07:09.117Z,9.681093
2023-05-13T02:08:09.080Z,9.681117
2023-05-13T02:09:09.074Z,9.680983
2023-05-13T02:10:09.045Z,9.681025
2023-05-13T02:11:09.055Z,9.680862
2023-05-13T02:12:09.041Z,9.681047
2023-05-13T02:13:09.068Z,9.681070
2023-05-13T02:14:09.019Z,9.681039
2023-05-13T02:15:09.036Z,9.681078
2023-05-13T02:16:09.060Z,9.681075
2023-05-13T02:17:09.033Z,9.681038
2023-05-13T02:18:09.075Z,9.681049
2023-05-13T02:19:09.139Z,9.681027
2023-05-13T02:20:08.998Z,9.681006
2023-05-13T02:21:08.994Z,9.681032
2023-05-13T02:22:08.992Z,9.681076
2023-05-13T02:23:08.983Z,9.681029
2023-05-13T02:24:08.953Z,9.680984
2023-05-13T02:25:08.990Z,9.681015
2023-05-13T02:26:08.958Z,9.681003
2023-05-13T02:27:08.994Z,9.680981
2023-05-13T02:28:08.946Z,9.681023
2023-05-13T02:29:08.988Z,9.680994
2023-05-13T02:30:08.978Z,9.680991
2023-05-13T02:31:08.946Z,9.681031
2023-05-13T02:32:08.979Z,9.680962
2023-05-13T02:33:08.959Z,9.681010
2023-05-13T02:34:08.923Z,9.681047
2023-05-13T02:35:08.963Z,9.681076
2023-05-13T02:36:08.881Z,9.681028
2023-05-13T02:37:08.912Z,9.681028
2023-05-13T02:38:08.909Z,9.680990
2023-05-13T02:39:08.880Z,9.681082
2023-05-13T02:40:08.882Z,9.681034
2023-05-13T02:41:08.892Z,9.681044
2023-05-13T02:42:08.851Z,9.681046
2023-05-13T02:43:08.854Z,9.681001
2023-05-13T02:44:08.858Z,9.681034
2023-05-13T02:45:08.870Z,9.681019
2023-05-13T02:46:08.890Z,9.681111
2023-05-13T02:47:08.837Z,9.681040
2023-05-13T02:48:08.906Z,9.680999
2023-05-13T02:49:08.829Z,9.681083
2023-05-13T02:50:08.796Z,9.681020
2023-05-13T02:51:08.812Z,9.681042
2023-05-13T02:52:08.810Z,9.681043
2023-05-13T02:53:08.841Z,9.681048
2023-05-13T02:54:08.801Z,9.681051
2023-05-13T02:55:08.809Z,9.681038
2023-05-13T02:56:08.800Z,9.681003
2023-05-13T02:57:08.783Z,9.680968
2023-05-13T02:58:08.771Z,9.681006
2023-05-13T02:59:08.758Z,9.681020
2023-05-13T03:00:08.756Z,9.681038
2023-05-13T03:01:08.783Z,9.681021
2023-05-13T03:02:08.760Z,9.681047
2023-05-13T03:03:08.775Z,9.681057
2023-05-13T03:04:08.755Z,9.681011
2023-05-13T03:05:08.720Z,9.681084
2023-05-13T03:06:08.701Z,9.681041
2023-05-13T03:07:08.724Z,9.681022
2023-05-13T03:08:08.692Z,9.681025
2023-05-13T03:09:08.708Z,9.680991
2023-05-13T03:10:08.700Z,9.680979
2023-05-13T03:11:08.696Z,9.681044
2023-05-13T03:12:08.666Z,9.680974
2023-05-13T03:13:08.704Z,9.681021
2023-05-13T03:14:08.667Z,9.681057
2023-05-13T03:15:08.667Z,9.681036
2023-05-13T03:16:08.672Z,9.681028
2023-05-13T03:17:08.654Z,9.681005
2023-05-13T03:18:08.635Z,9.681022
2023-05-13T03:19:08.788Z,9.681036
2023-05-13T03:20:08.637Z,9.681018
2023-05-13T03:21:08.630Z,9.680997
2023-05-13T03:22:08.642Z,9.681034
2023-05-13T03:23:08.632Z,9.681035
2023-05-13T03:24:08.588Z,9.680970
2023-05-13T03:25:08.621Z,9.681030
2023-05-13T03:26:08.604Z,9.681028
2023-05-13T03:27:08.596Z,9.681029
2023-05-13T03:28:08.577Z,9.681050
2023-05-13T03:29:08.604Z,9.681067
2023-05-13T03:30:08.566Z,9.681066
2023-05-13T03:31:08.603Z,9.681017
2023-05-13T03:32:08.572Z,9.681053
2023-05-13T03:33:08.556Z,9.681038
2023-05-13T03:34:08.550Z,9.681023
2023-05-13T03:35:08.544Z,9.681061
2023-05-13T03:36:08.533Z,9.681071
2023-05-13T03:37:08.552Z,9.681018
2023-05-13T03:38:08.540Z,9.681034
2023-05-13T03:39:08.561Z,9.681032
2023-05-13T03:40:08.537Z,9.680993
2023-05-13T03:41:08.535Z,9.681002
2023-05-13T03:42:08.495Z,9.681044
2023-05-13T03:43:08.525Z,9.681052
2023-05-13T03:44:08.493Z,9.681012
2023-05-13T03:45:08.502Z,9.681006
2023-05-13T03:46:08.460Z,9.681022
2023-05-13T03:47:08.528Z,9.681026
2023-05-13T03:48:08.586Z,9.680952
2023-05-13T03:49:08.471Z,9.681046
2023-05-13T03:50:08.473Z,9.681019
2023-05-13T03:51:08.451Z,9.681010
2023-05-13T03:52:08.425Z,9.681089
2023-05-13T03:53:08.461Z,9.681054
2023-05-13T03:54:08.437Z,9.681030
2023-05-13T03:55:08.434Z,9.681068
2023-05-13T03:56:08.412Z,9.681025
2023-05-13T03:57:08.442Z,9.680995
2023-05-13T03:58:08.403Z,9.681020
2023-05-13T03:59:08.409Z,9.681047
2023-05-13T04:00:08.408Z,9.681014
2023-05-13T04:01:08.400Z,9.680979
2023-05-13T04:02:08.438Z,9.681043
2023-05-13T04:03:08.502Z,9.680977
2023-05-13T04:04:08.387Z,9.681079
2023-05-13T04:05:08.426Z,9.681216
2023-05-13T04:06:08.370Z,9.681149
2023-05-13T04:07:08.373Z,9.681203
2023-05-13T04:08:08.366Z,9.681056
2023-05-13T04:09:08.366Z,9.681111
2023-05-13T04:10:08.337Z,9.681079
2023-05-13T04:11:08.347Z,9.681012
2023-05-13T04:12:08.383Z,9.681080
2023-05-13T04:13:08.334Z,9.681098
2023-05-13T04:14:08.322Z,9.681078
2023-05-13T04:15:08.341Z,9.681011
2023-05-13T04:16:08.304Z,9.681147
2023-05-13T04:17:08.354Z,9.681129
2023-05-13T04:18:08.396Z,9.681066
2023-05-13T04:19:08.523Z,9.680952
2023-05-13T04:20:08.299Z,9.680976
2023-05-13T04:21:08.305Z,9.681082
2023-05-13T04:22:08.275Z,9.681067
2023-05-13T04:23:08.284Z,9.680964
2023-05-13T04:24:08.283Z,9.681063
2023-05-13T04:25:08.284Z,9.681027
2023-05-13T04:26:08.238Z,9.681035
2023-05-13T04:27:08.253Z,9.680960
2023-05-13T04:28:08.229Z,9.681016
2023-05-13T04:29:08.247Z,9.681157
2023-05-13T04:30:08.246Z,9.681145
2023-05-13T04:31:08.264Z,9.681043
2023-05-13T04:32:08.383Z,9.680991
2023-05-13T04:33:08.248Z,9.681072
2023-05-13T04:34:08.197Z,9.681183
2023-05-13T04:35:08.223Z,9.681224
2023-05-13T04:36:08.209Z,9.681106
2023-05-13T04:37:08.196Z,9.680992
2023-05-13T04:38:08.176Z,9.680990
2023-05-13T04:39:08.200Z,9.681127
2023-05-13T04:40:08.154Z,9.681058
2023-05-13T04:41:08.224Z,9.681179
2023-05-13T04:42:08.187Z,9.681140
2023-05-13T04:43:08.193Z,9.681104
2023-05-13T04:44:08.137Z,9.681118
2023-05-13T04:45:08.151Z,9.681132
2023-05-13T04:46:08.178Z,9.681116
2023-05-13T04:47:08.139Z,9.681070
2023-05-13T04:48:08.194Z,9.681134
2023-05-13T04:49:08.174Z,9.681095
2023-05-13T04:50:08.143Z,9.681077
2023-05-13T04:51:08.128Z,9.681056
2023-05-13T04:52:08.111Z,9.681092
2023-05-13T04:53:08.110Z,9.681125
2023-05-13T04:54:08.146Z,9.681045
2023-05-13T04:55:08.117Z,9.681037
2023-05-13T04:56:08.113Z,9.681071
2023-05-13T04:57:08.095Z,9.680869
2023-05-13T04:58:08.077Z,9.681012
2023-05-13T04:59:08.070Z,9.681129
2023-05-13T05:00:08.063Z,9.681173
2023-05-13T05:01:08.197Z,9.681119
2023-05-13T05:02:08.107Z,9.681098
2023-05-13T05:03:08.084Z,9.681126
2023-05-13T05:04:08.130Z,9.681090
2023-05-13T05:05:08.043Z,9.681027
2023-05-13T05:06:08.012Z,9.681144
2023-05-13T05:07:08.054Z,9.681031
2023-05-13T05:08:08.005Z,9.681121
2023-05-13T05:09:08.032Z,9.681154
2023-05-13T05:10:08.009Z,9.681014
2023-05-13T05:11:08.017Z,9.681135
2023-05-13T05:12:08.004Z,9.681147
2023-05-13T05:13:07.992Z,9.680993
2023-05-13T05:14:07.975Z,9.681011
2023-05-13T05:15:07.996Z,9.681088
2023-05-13T05:16:07.980Z,9.681004
2023-05-13T05:17:08.041Z,9.681076
2023-05-13T05:18:08.132Z,9.681180
2023-05-13T05:19:08.019Z,9.681166
2023-05-13T05:20:07.954Z,9.681083
2023-05-13T05:21:08.005Z,9.681170
2023-05-13T05:22:07.983Z,9.681057
2023-05-13T05:23:07.940Z,9.681133
2023-05-13T05:24:07.945Z,9.681126
2023-05-13T05:25:07.936Z,9.681013
2023-05-13T05:26:11.638Z,9.680962
2023-05-13T05:27:07.929Z,9.681118
2023-05-13T05:28:07.929Z,9.681059
2023-05-13T05:29:07.919Z,9.681185
2023-05-13T05:30:07.899Z,9.681038
2023-05-13T05:31:07.936Z,9.680976
2023-05-13T05:32:07.872Z,9.681063
2023-05-13T05:33:07.997Z,9.681085
2023-05-13T05:34:07.867Z,9.681104
2023-05-13T05:35:07.898Z,9.681162
2023-05-13T05:36:07.847Z,9.680914
2023-05-13T05:37:07.901Z,9.681015
2023-05-13T05:38:07.865Z,9.681027
2023-05-13T05:39:07.857Z,9.680982
2023-05-13T05:40:07.862Z,9.681001
2023-05-13T05:41:07.877Z,9.681027
2023-05-13T05:42:07.844Z,9.681121
2023-05-13T05:43:07.860Z,9.681046
2023-05-13T05:44:07.815Z,9.681007
2023-05-13T05:45:07.831Z,9.681021
2023-05-13T05:46:07.883Z,9.681063
2023-05-13T05:47:07.816Z,9.681064
2023-05-13T05:48:07.815Z,9.681074
2023-05-13T05:49:07.798Z,9.681081
2023-05-13T05:50:07.807Z,9.681127
2023-05-13T05:51:07.796Z,9.681169
2023-05-13T05:52:07.781Z,9.681113
2023-05-13T05:53:07.776Z,9.681049
2023-05-13T05:54:07.756Z,9.681103
2023-05-13T05:55:07.797Z,9.681060
2023-05-13T05:56:07.739Z,9.681097
2023-05-13T05:57:07.759Z,9.681046
2023-05-13T05:58:08.674Z,9.681127
2023-05-13T05:59:07.851Z,9.681120
2023-05-13T06:00:07.733Z,9.681142
2023-05-13T06:01:07.751Z,9.681145
2023-05-13T06:02:07.881Z,9.681083
2023-05-13T06:03:08.137Z,9.681124
2023-05-13T06:04:07.852Z,9.681130
2023-05-13T06:05:07.714Z,9.681105
2023-05-13T06:06:07.688Z,9.681110
2023-05-13T06:07:07.794Z,9.681071
2023-05-13T06:08:07.690Z,9.681054
2023-05-13T06:09:07.702Z,9.681111
2023-05-13T06:10:08.419Z,9.681122
2023-05-13T06:11:07.684Z,9.681127
2023-05-13T06:12:07.644Z,9.681117
2023-05-13T06:13:07.721Z,9.681117
2023-05-13T06:14:07.629Z,9.681143
2023-05-13T06:15:07.639Z,9.681121
2023-05-13T06:16:07.819Z,9.681082
2023-05-13T06:17:07.641Z,9.681045
2023-05-13T06:18:07.635Z,9.681040
2023-05-13T06:19:07.784Z,9.680957
2023-05-13T06:20:07.583Z,9.681117
2023-05-13T06:21:07.622Z,9.681101
2023-05-13T06:22:07.577Z,9.681072
2023-05-13T06:23:07.590Z,9.681149
2023-05-13T06:24:07.569Z,9.681086
2023-05-13T06:25:07.619Z,9.681025
2023-05-13T06:26:07.548Z,9.681080
2023-05-13T06:27:07.615Z,9.681149
2023-05-13T06:28:07.538Z,9.681097
2023-05-13T06:29:07.551Z,9.681119
2023-05-13T06:30:07.524Z,9.681111
2023-05-13T06:31:07.596Z,9.681060
2023-05-13T06:32:07.492Z,9.681061
2023-05-13T06:33:07.619Z,9.681074
2023-05-13T06:34:07.517Z,9.681113
2023-05-13T06:35:07.500Z,9.681118
2023-05-13T06:36:07.465Z,9.681117
2023-05-13T06:37:07.496Z,9.681108
2023-05-13T06:38:07.483Z,9.681154
2023-05-13T06:39:07.473Z,9.681013
2023-05-13T06:40:07.450Z,9.681115
2023-05-13T06:41:07.445Z,9.681124
2023-05-13T06:42:07.450Z,9.681111
2023-05-13T06:43:07.444Z,9.681076
2023-05-13T06:44:07.507Z,9.681072
2023-05-13T06:45:07.413Z,9.681071
2023-05-13T06:46:07.398Z,9.681074
2023-05-13T06:47:07.451Z,9.681102
2023-05-13T06:48:07.436Z,9.681090
2023-05-13T06:49:07.410Z,9.681129
2023-05-13T06:50:07.369Z,9.681108
2023-05-13T06:51:07.388Z,9.681113
2023-05-13T06:52:07.362Z,9.681039
2023-05-13T06:53:07.353Z,9.681036
2023-05-13T06:54:07.346Z,9.681046
2023-05-13T06:55:07.352Z,9.681074
2023-05-13T06:56:07.359Z,9.681108
2023-05-13T06:57:07.406Z,9.681055
2023-05-13T06:58:07.308Z,9.681013
2023-05-13T06:59:07.381Z,9.681049
2023-05-13T07:00:07.303Z,9.681064
2023-05-13T07:01:07.364Z,9.681028
2023-05-13T07:02:07.367Z,9.681014
2023-05-13T07:03:07.326Z,9.681059
2023-05-13T07:04:07.306Z,9.681116
2023-05-13T07:06:07.261Z,9.681074
2023-05-13T07:07:07.338Z,9.681042
2023-05-13T07:08:07.270Z,9.680917
2023-05-13T07:09:08.548Z,9.680874
2023-05-13T07:10:07.267Z,9.681183
2023-05-13T07:11:07.222Z,9.681248
2023-05-13T07:12:07.202Z,9.681250
2023-05-13T07:13:07.213Z,9.681283
2023-05-13T07:14:07.189Z,9.681310
2023-05-13T07:15:07.179Z,9.681306
2023-05-13T07:16:07.167Z,9.681124
2023-05-13T07:17:07.214Z,9.681164
2023-05-13T07:18:07.196Z,9.681188
2023-05-13T07:19:07.266Z,9.681278
2023-05-13T07:20:07.131Z,9.681177
2023-05-13T07:21:07.156Z,9.681216
2023-05-13T07:22:07.124Z,9.681159
2023-05-13T07:23:07.123Z,9.681182
2023-05-13T07:24:07.096Z,9.681208
2023-05-13T07:25:07.119Z,9.681213
2023-05-13T07:26:07.086Z,9.681216
2023-05-13T07:27:07.080Z,9.681120
2023-05-13T07:28:07.047Z,9.681193
2023-05-13T07:29:07.087Z,9.681182
2023-05-13T07:30:07.091Z,9.681203
2023-05-13T07:31:07.094Z,9.681149
2023-05-13T07:32:07.045Z,9.681193
2023-05-13T07:33:07.057Z,9.681258
2023-05-13T07:34:07.018Z,9.681082
2023-05-13T07:35:07.023Z,9.681194
2023-05-13T07:36:07.032Z,9.681137
2023-05-13T07:37:07.006Z,9.681037
2023-05-13T07:38:06.993Z,9.680986
2023-05-13T07:39:07.152Z,9.681177
2023-05-13T07:40:06.970Z,9.681139
2023-05-13T07:41:06.989Z,9.681124
2023-05-13T07:42:06.979Z,9.681187
2023-05-13T07:43:06.957Z,9.681231
2023-05-13T07:44:06.978Z,9.681132
2023-05-13T07:45:06.941Z,9.681084
2023-05-13T07:46:06.955Z,9.681048
2023-05-13T07:47:06.976Z,9.681117
2023-05-13T07:48:06.957Z,9.681135
2023-05-13T07:49:06.940Z,9.681158
2023-05-13T07:50:06.913Z,9.681130
2023-05-13T07:51:06.907Z,9.681000
2023-05-13T07:52:06.881Z,9.680964
2023-05-13T07:53:06.909Z,9.680845
2023-05-13T07:54:06.888Z,9.680854
2023-05-13T07:55:06.912Z,9.680918
2023-05-13T07:56:06.852Z,9.680972
2023-05-13T07:57:06.864Z,9.680962
2023-05-13T07:58:06.869Z,9.681236
2023-05-13T07:59:09.225Z,9.681444
2023-05-13T08:00:06.860Z,9.681194
2023-05-13T08:01:06.844Z,9.681152
2023-05-13T08:02:06.830Z,9.681219
2023-05-13T08:03:06.957Z,9.681549
2023-05-13T08:04:06.986Z,9.681246
2023-05-13T08:05:06.955Z,9.681068
2023-05-13T08:06:06.792Z,9.681041
2023-05-13T08:07:06.795Z,9.680994
2023-05-13T08:08:06.790Z,9.681253
2023-05-13T08:09:06.811Z,9.681011
2023-05-13T08:10:06.775Z,9.680733
2023-05-13T08:11:06.761Z,9.681200
2023-05-13T08:12:06.720Z,9.681153
2023-05-13T08:13:06.741Z,9.681000
2023-05-13T08:14:06.762Z,9.680910
2023-05-13T08:15:06.791Z,9.680984
2023-05-13T08:16:06.718Z,9.681061
2023-05-13T08:17:06.748Z,9.681089
2023-05-13T08:18:06.704Z,9.681167
2023-05-13T08:19:06.746Z,9.680969
2023-05-13T08:20:06.684Z,9.680887
2023-05-13T08:21:06.688Z,9.681088
2023-05-13T08:22:06.666Z,9.681087
2023-05-13T08:23:06.681Z,9.680991
2023-05-13T08:24:06.653Z,9.680998
2023-05-13T08:25:06.659Z,9.681034
2023-05-13T08:26:06.645Z,9.681035
2023-05-13T08:27:06.634Z,9.681062
2023-05-13T08:28:06.653Z,9.680973
2023-05-13T08:29:06.636Z,9.681038
2023-05-13T08:30:06.647Z,9.681077
2023-05-13T08:31:06.626Z,9.681057
2023-05-13T08:32:06.653Z,9.681010
2023-05-13T08:33:06.683Z,9.681066
2023-05-13T08:34:06.583Z,9.681003
2023-05-13T08:35:06.574Z,9.681069
2023-05-13T08:36:06.589Z,9.681009
2023-05-13T08:37:06.593Z,9.681037
2023-05-13T08:38:06.578Z,9.681076
2023-05-13T08:39:06.592Z,9.681108
2023-05-13T08:40:06.588Z,9.681051
2023-05-13T08:41:06.773Z,9.681020
2023-05-13T08:42:06.622Z,9.681031
2023-05-13T08:43:06.645Z,9.681006
2023-05-13T08:44:06.599Z,9.681016
2023-05-13T08:45:06.562Z,9.681020
2023-05-13T08:46:06.616Z,9.681062
2023-05-13T08:47:06.533Z,9.681068
2023-05-13T08:48:06.542Z,9.680991
2023-05-13T08:49:06.486Z,9.681026
2023-05-13T08:50:06.534Z,9.681085
2023-05-13T08:51:06.512Z,9.681087
2023-05-13T08:52:06.494Z,9.681075
2023-05-13T08:53:06.505Z,9.681091
2023-05-13T08:54:06.469Z,9.681006
2023-05-13T08:55:06.484Z,9.681034
2023-05-13T08:56:06.455Z,9.681083
2023-05-13T08:57:06.443Z,9.681121
2023-05-13T08:58:06.468Z,9.681099
2023-05-13T08:59:06.447Z,9.681074
2023-05-13T09:00:06.410Z,9.681087
2023-05-13T09:01:06.499Z,9.681033
2023-05-13T09:02:06.412Z,9.681005
2023-05-13T09:03:06.461Z,9.681032
2023-05-13T09:04:06.410Z,9.681060
2023-05-13T09:05:06.446Z,9.681105
2023-05-13T09:06:06.373Z,9.681154
2023-05-13T09:07:06.400Z,9.681145
2023-05-13T09:08:06.346Z,9.681071
2023-05-13T09:09:06.424Z,9.681120
2023-05-13T09:10:06.325Z,9.681125
2023-05-13T09:11:06.388Z,9.681022
2023-05-13T09:12:06.326Z,9.681076
2023-05-13T09:13:06.332Z,9.681095
2023-05-13T09:14:06.335Z,9.681061
2023-05-13T09:15:06.341Z,9.681108
2023-05-13T09:16:06.301Z,9.681141
2023-05-13T09:17:06.365Z,9.681132
2023-05-13T09:18:06.386Z,9.681041
2023-05-13T09:19:06.427Z,9.681113
2023-05-13T09:20:06.294Z,9.681161
2023-05-13T09:21:06.285Z,9.681157
2023-05-13T09:22:06.760Z,9.681193
2023-05-13T09:23:06.257Z,9.681123
2023-05-13T09:24:07.820Z,9.681162
2023-05-13T09:25:06.255Z,9.681151
2023-05-13T09:26:06.245Z,9.681032
2023-05-13T09:27:06.214Z,9.681156
2023-05-13T09:28:06.219Z,9.681114
2023-05-13T09:29:06.209Z,9.681005
2023-05-13T09:30:06.193Z,9.681067
2023-05-13T09:31:06.206Z,9.681150
2023-05-13T09:32:06.202Z,9.681136
2023-05-13T09:33:06.224Z,9.681126
2023-05-13T09:34:06.147Z,9.681174
2023-05-13T09:35:06.163Z,9.681256
2023-05-13T09:36:06.158Z,9.681197
2023-05-13T09:37:06.196Z,9.681212
2023-05-13T09:38:06.176Z,9.681214
2023-05-13T09:39:06.172Z,9.681114
2023-05-13T09:40:06.143Z,9.681211
2023-05-13T09:41:06.133Z,9.681227
2023-05-13T09:42:06.114Z,9.681130
2023-05-13T09:43:06.122Z,9.681231
2023-05-13T09:44:06.097Z,9.681262
2023-05-13T09:45:06.134Z,9.681243
2023-05-13T09:46:06.099Z,9.681331
2023-05-13T09:47:06.203Z,9.681355
2023-05-13T09:48:06.123Z,9.681211
2023-05-13T09:49:06.132Z,9.681177
2023-05-13T09:50:06.047Z,9.681147
2023-05-13T09:51:06.068Z,9.681242
2023-05-13T09:52:06.046Z,9.681221
2023-05-13T09:53:06.053Z,9.681229
2023-05-13T09:54:06.051Z,9.681282
2023-05-13T09:55:06.075Z,9.681287
2023-05-13T09:56:06.015Z,9.681225
2023-05-13T09:57:06.036Z,9.681172
2023-05-13T09:58:06.010Z,9.681195
2023-05-13T09:59:06.076Z,9.681161
2023-05-13T10:00:05.985Z,9.681190
2023-05-13T10:01:06.082Z,9.681237
2023-05-13T10:02:05.966Z,9.681188
2023-05-13T10:03:06.033Z,9.681124
2023-05-13T10:04:05.971Z,9.681105
2023-05-13T10:05:05.973Z,9.681178
2023-05-13T10:06:05.980Z,9.681276
2023-05-13T10:07:05.956Z,9.681231
2023-05-13T10:08:05.932Z,9.681192
2023-05-13T10:09:05.938Z,9.681190
2023-05-13T10:10:05.947Z,9.681123
2023-05-13T10:11:05.938Z,9.681072
2023-05-13T10:12:05.936Z,9.681159
2023-05-13T10:13:05.919Z,9.681201
2023-05-13T10:14:05.883Z,9.681177
2023-05-13T10:15:05.904Z,9.681195
2023-05-13T10:16:05.909Z,9.681129
2023-05-13T10:17:05.951Z,9.681131
2023-05-13T10:18:07.524Z,9.681126
2023-05-13T10:19:05.951Z,9.681105
2023-05-13T10:20:05.873Z,9.681062
2023-05-13T10:21:05.872Z,9.681033
2023-05-13T10:22:05.846Z,9.681034
2023-05-13T10:23:05.851Z,9.681107
2023-05-13T10:24:05.844Z,9.681067
2023-05-13T10:25:05.829Z,9.680990
2023-05-13T10:26:05.810Z,9.681006
2023-05-13T10:27:05.812Z,9.681096
2023-05-13T10:28:05.801Z,9.681103
2023-05-13T10:29:05.808Z,9.681183
2023-05-13T10:30:05.844Z,9.681209
2023-05-13T10:31:05.797Z,9.681115
2023-05-13T10:32:05.885Z,9.681174
2023-05-13T10:33:05.836Z,9.681109
2023-05-13T10:34:05.743Z,9.681125
2023-05-13T10:35:05.772Z,9.681040
2023-05-13T10:36:05.735Z,9.681052
2023-05-13T10:37:05.757Z,9.681038
2023-05-13T10:38:05.772Z,9.681040
2023-05-13T10:39:05.736Z,9.681014
2023-05-13T10:40:05.700Z,9.681133
2023-05-13T10:41:05.744Z,9.681165
2023-05-13T10:42:05.700Z,9.681114
2023-05-13T10:43:05.708Z,9.681148
2023-05-13T10:44:05.722Z,9.681048
2023-05-13T10:45:05.706Z,9.681079
2023-05-13T10:46:05.708Z,9.681101
2023-05-13T10:47:05.716Z,9.681091
2023-05-13T10:48:05.761Z,9.681123
2023-05-13T10:49:05.687Z,9.681131
2023-05-13T10:50:05.631Z,9.681080
2023-05-13T10:51:05.654Z,9.681033
2023-05-13T10:52:05.634Z,9.681005
2023-05-13T10:53:05.649Z,9.681060
2023-05-13T10:54:05.601Z,9.681042
2023-05-13T10:55:05.612Z,9.681029
2023-05-13T10:56:05.605Z,9.681011
2023-05-13T10:57:05.606Z,9.681004
2023-05-13T10:58:05.613Z,9.680964
2023-05-13T10:59:05.596Z,9.681019
2023-05-13T11:00:05.573Z,9.681106
2023-05-13T11:01:05.606Z,9.681064
2023-05-13T11:02:05.564Z,9.681073
2023-05-13T11:03:05.618Z,9.681089
2023-05-13T11:04:05.684Z,9.681086
2023-05-13T11:05:05.587Z,9.681072
2023-05-13T11:06:05.532Z,9.681038
2023-05-13T11:07:05.535Z,9.680995
2023-05-13T11:08:05.515Z,9.681082
2023-05-13T11:09:05.519Z,9.681108
2023-05-13T11:10:05.525Z,9.681067
2023-05-13T11:11:05.498Z,9.681003
2023-05-13T11:12:05.485Z,9.681087
2023-05-13T11:13:05.487Z,9.681052
2023-05-13T11:14:08.117Z,9.681046
2023-05-13T11:15:05.500Z,9.681046
2023-05-13T11:16:05.510Z,9.681037
2023-05-13T11:17:05.476Z,9.681073
2023-05-13T11:18:05.498Z,9.681023
2023-05-13T11:19:05.528Z,9.681037
2023-05-13T11:20:05.477Z,9.681148
2023-05-13T11:21:05.843Z,9.681031
2023-05-13T11:22:05.452Z,9.681026
2023-05-13T11:23:05.420Z,9.681094
2023-05-13T11:24:05.447Z,9.681117
2023-05-13T11:25:05.416Z,9.681088
2023-05-13T11:26:05.382Z,9.681102
2023-05-13T11:27:05.388Z,9.680993
2023-05-13T11:28:05.390Z,9.681020
2023-05-13T11:29:05.412Z,9.681085
2023-05-13T11:30:05.437Z,9.681125
2023-05-13T11:31:05.390Z,9.681108
2023-05-13T11:32:05.346Z,9.681165
2023-05-13T11:33:05.380Z,9.681153
2023-05-13T11:34:05.368Z,9.681021
2023-05-13T11:35:05.336Z,9.681027
2023-05-13T11:36:05.315Z,9.681054
2023-05-13T11:37:05.347Z,9.681024
2023-05-13T11:38:05.305Z,9.681029
2023-05-13T11:39:05.302Z,9.681009
2023-05-13T11:40:05.277Z,9.680922
2023-05-13T11:41:05.313Z,9.680944
2023-05-13T11:42:05.286Z,9.680908
2023-05-13T11:43:05.410Z,9.680934
2023-05-13T11:44:05.256Z,9.680965
2023-05-13T11:45:05.270Z,9.681023